createdAt,value
2023-03-28T00:00:13.733Z,38.10
2023-03-28T00:05:07.312Z,38.10
2023-03-28T00:07:33.841Z,38.20
2023-03-28T00:10:00.315Z,38.10
2023-03-28T00:12:26.825Z,38.10
2023-03-28T00:14:53.286Z,37.90
2023-03-28T00:17:19.788Z,37.90
2023-03-28T00:19:46.306Z,37.80
2023-03-28T00:22:12.775Z,37.70
2023-03-28T00:24:39.258Z,37.90
2023-03-28T00:27:05.737Z,37.80
2023-03-28T00:29:32.203Z,37.30
2023-03-28T00:31:58.732Z,37.70
2023-03-28T00:36:52.240Z,37.50
2023-03-28T00:39:18.702Z,37.10
2023-03-28T00:41:45.164Z,37.70
2023-03-28T00:44:11.637Z,37.40
2023-03-28T00:46:38.155Z,37.60
2023-03-28T00:49:04.622Z,37.00
2023-03-28T00:51:31.109Z,37.30
2023-03-28T00:53:57.588Z,37.20
2023-03-28T00:56:24.060Z,37.30
2023-03-28T00:58:50.552Z,37.30
2023-03-28T01:01:17.115Z,36.80
2023-03-28T01:03:43.814Z,37.00
2023-03-28T01:08:37.410Z,37.00
2023-03-28T01:11:03.867Z,37.10
2023-03-28T01:13:30.406Z,36.90
2023-03-28T01:15:56.984Z,36.90
2023-03-28T01:18:23.539Z,36.80
2023-03-28T01:20:50.023Z,37.20
2023-03-28T01:23:16.476Z,36.90
2023-03-28T01:25:42.920Z,36.80
2023-03-28T01:30:36.531Z,36.80
2023-03-28T01:33:03.129Z,36.90
2023-03-28T01:37:56.712Z,36.30
2023-03-28T01:40:23.212Z,36.60
2023-03-28T01:42:49.663Z,36.90
2023-03-28T01:45:16.102Z,36.90
2023-03-28T01:47:42.581Z,36.50
2023-03-28T01:50:09.082Z,36.60
2023-03-28T01:52:35.560Z,36.70
2023-03-28T01:55:02.093Z,36.90
2023-03-28T01:57:28.743Z,36.70
2023-03-28T01:59:55.320Z,37.30
2023-03-28T02:02:21.845Z,37.60
2023-03-28T02:04:48.419Z,37.50
2023-03-28T02:09:41.953Z,37.20
2023-03-28T02:12:08.400Z,37.10
2023-03-28T02:14:34.914Z,37.10
2023-03-28T02:17:01.417Z,36.90
2023-03-28T02:19:27.926Z,36.90
2023-03-28T02:21:54.408Z,36.80
2023-03-28T02:24:20.900Z,36.80
2023-03-28T02:26:47.672Z,36.70
2023-03-28T02:29:14.395Z,36.20
2023-03-28T02:31:41.030Z,36.60
2023-03-28T02:34:07.556Z,36.60
2023-03-28T02:36:34.087Z,36.60
2023-03-28T02:39:00.539Z,36.40
2023-03-28T02:41:27.022Z,37.10
2023-03-28T02:43:53.466Z,36.60
2023-03-28T02:46:20.014Z,37.40
2023-03-28T02:48:46.550Z,36.70
2023-03-28T02:51:13.009Z,36.90
2023-03-28T02:53:39.519Z,37.00
2023-03-28T02:56:05.976Z,37.00
2023-03-28T02:58:32.446Z,36.70
2023-03-28T03:00:58.941Z,36.20
2023-03-28T03:03:25.466Z,37.00
2023-03-28T03:05:51.957Z,36.90
2023-03-28T03:08:18.463Z,37.60
2023-03-28T03:10:44.941Z,36.70
2023-03-28T03:13:11.429Z,36.60
2023-03-28T03:15:37.971Z,36.70
2023-03-28T03:18:04.561Z,36.80
2023-03-28T03:20:31.058Z,36.90
2023-03-28T03:22:57.549Z,36.50
2023-03-28T03:25:24.000Z,36.70
2023-03-28T03:27:50.523Z,36.50
2023-03-28T03:30:16.977Z,36.60
2023-03-28T03:32:43.472Z,36.60
2023-03-28T03:35:09.980Z,36.90
2023-03-28T03:37:36.485Z,36.50
2023-03-28T03:40:02.950Z,36.40
2023-03-28T03:42:29.474Z,36.30
2023-03-28T03:44:55.925Z,36.20
2023-03-28T03:47:22.390Z,36.10
2023-03-28T03:49:48.865Z,36.70
2023-03-28T03:52:15.347Z,35.90
2023-03-28T03:54:41.813Z,36.20
2023-03-28T03:57:08.391Z,36.00
2023-03-28T03:59:34.956Z,36.40
2023-03-28T04:04:28.730Z,35.90
2023-03-28T04:06:55.291Z,35.70
2023-03-28T04:09:21.783Z,36.20
2023-03-28T04:11:48.325Z,35.90
2023-03-28T04:14:14.774Z,35.90
2023-03-28T04:16:41.708Z,36.00
2023-03-28T04:19:08.330Z,35.90
2023-03-28T04:21:34.835Z,36.00
2023-03-28T04:24:01.336Z,35.90
2023-03-28T04:26:27.793Z,36.30
2023-03-28T04:31:21.531Z,36.60
2023-03-28T04:33:48.093Z,36.20
2023-03-28T04:36:14.543Z,36.60
2023-03-28T04:38:41.031Z,36.60
2023-03-28T04:41:07.478Z,37.10
2023-03-28T04:43:33.973Z,36.70
2023-03-28T04:46:00.647Z,36.40
2023-03-28T04:48:27.306Z,37.30
2023-03-28T04:50:53.836Z,37.20
2023-03-28T04:53:20.313Z,37.30
2023-03-28T04:55:46.789Z,37.30
2023-03-28T04:58:13.310Z,37.70
2023-03-28T05:00:39.794Z,37.50
2023-03-28T05:03:06.312Z,37.70
2023-03-28T05:05:32.916Z,37.40
2023-03-28T05:07:59.380Z,37.60
2023-03-28T05:10:25.875Z,37.60
2023-03-28T05:12:52.343Z,37.90
2023-03-28T05:15:22.270Z,37.60
2023-03-28T05:17:49.794Z,37.60
2023-03-28T05:20:16.369Z,37.70
2023-03-28T05:22:42.827Z,37.10
2023-03-28T05:25:09.312Z,37.10
2023-03-28T05:27:35.801Z,37.10
2023-03-28T05:30:02.281Z,36.70
2023-03-28T05:32:28.765Z,37.10
2023-03-28T05:34:55.205Z,37.30
2023-03-28T05:37:21.720Z,37.10
2023-03-28T05:39:48.193Z,36.70
2023-03-28T05:42:14.693Z,36.70
2023-03-28T05:44:41.173Z,37.40
2023-03-28T05:47:07.653Z,36.50
2023-03-28T05:49:34.147Z,37.50
2023-03-28T05:52:00.643Z,36.50
2023-03-28T05:54:27.108Z,37.10
2023-03-28T05:56:53.660Z,36.80
2023-03-28T06:01:47.300Z,37.50
2023-03-28T06:04:13.800Z,37.10
2023-03-28T06:06:40.272Z,37.90
2023-03-28T06:09:06.776Z,38.80
2023-03-28T06:11:33.302Z,38.00
2023-03-28T06:13:59.806Z,38.90
2023-03-28T06:19:10.529Z,38.40
2023-03-28T06:21:41.210Z,38.70
2023-03-28T06:24:07.740Z,38.60
2023-03-28T06:26:34.209Z,39.10
2023-03-28T06:29:00.688Z,38.20
2023-03-28T06:31:27.188Z,37.80
2023-03-28T06:33:53.670Z,38.10
2023-03-28T06:36:20.166Z,37.90
2023-03-28T06:38:46.770Z,38.10
2023-03-28T06:41:13.290Z,37.60
2023-03-28T06:43:39.765Z,37.30
2023-03-28T06:46:06.326Z,37.30
2023-03-28T06:48:35.674Z,37.90
2023-03-28T06:51:03.957Z,37.40
2023-03-28T06:53:30.427Z,37.00
2023-03-28T06:55:56.914Z,37.20
2023-03-28T06:58:23.442Z,38.00
2023-03-28T07:00:49.948Z,36.90
2023-03-28T07:03:16.564Z,36.60
2023-03-28T07:05:43.107Z,37.40
2023-03-28T07:08:09.574Z,37.60
2023-03-28T07:10:36.055Z,36.70
2023-03-28T07:13:02.567Z,37.40
2023-03-28T07:15:29.073Z,36.60
2023-03-28T07:17:55.603Z,36.70
2023-03-28T07:20:22.060Z,36.20
2023-03-28T07:22:48.535Z,36.90
2023-03-28T07:25:15.041Z,37.00
2023-03-28T07:27:41.500Z,36.00
2023-03-28T07:30:07.984Z,35.90
2023-03-28T07:32:43.206Z,36.30
2023-03-28T07:35:20.056Z,35.70
2023-03-28T07:37:46.531Z,36.10
2023-03-28T07:40:13.058Z,36.00
2023-03-28T07:42:39.513Z,35.80
2023-03-28T07:45:06.012Z,36.30
2023-03-28T07:47:32.539Z,36.70
2023-03-28T07:49:59.031Z,36.00
2023-03-28T07:52:25.522Z,36.30
2023-03-28T07:57:19.086Z,36.00
2023-03-28T07:59:45.628Z,36.50
2023-03-28T08:02:12.121Z,36.70
2023-03-28T08:07:05.612Z,36.70
2023-03-28T08:09:32.068Z,36.70
2023-03-28T08:11:58.574Z,36.10
2023-03-28T08:14:25.078Z,36.00
2023-03-28T08:16:51.620Z,35.80
2023-03-28T08:19:18.122Z,36.70
2023-03-28T08:21:44.656Z,36.80
2023-03-28T08:24:12.855Z,36.70
2023-03-28T08:26:42.086Z,36.20
2023-03-28T08:29:08.619Z,35.90
2023-03-28T08:31:35.122Z,36.70
2023-03-28T08:34:01.647Z,36.60
2023-03-28T08:36:28.145Z,35.80
2023-03-28T08:38:54.695Z,35.90
2023-03-28T08:41:21.199Z,36.20
2023-03-28T08:43:47.717Z,35.60
2023-03-28T08:46:14.219Z,35.80
2023-03-28T08:48:40.713Z,35.90
2023-03-28T08:51:07.173Z,35.80
2023-03-28T08:53:33.694Z,35.90
2023-03-28T08:56:00.181Z,35.70
2023-03-28T08:58:26.682Z,36.50
2023-03-28T09:00:53.220Z,36.30
2023-03-28T09:03:19.759Z,36.00
2023-03-28T09:05:46.333Z,35.90
2023-03-28T09:08:12.844Z,36.00
2023-03-28T09:13:06.439Z,36.00
2023-03-28T09:15:32.987Z,36.00
2023-03-28T09:17:59.519Z,36.20
2023-03-28T09:20:26.011Z,36.20
2023-03-28T09:22:52.477Z,35.90
2023-03-28T09:25:18.984Z,36.30
2023-03-28T09:27:45.447Z,36.20
2023-03-28T09:32:38.940Z,36.50
2023-03-28T09:35:05.565Z,36.50
2023-03-28T09:37:32.087Z,36.10
2023-03-28T09:39:58.583Z,36.00
2023-03-28T09:44:54.815Z,37.00
2023-03-28T09:47:21.467Z,36.30
2023-03-28T09:49:49.544Z,35.80
2023-03-28T09:52:17.334Z,36.40
2023-03-28T09:54:43.857Z,36.00
2023-03-28T09:57:10.390Z,36.90
2023-03-28T09:59:36.971Z,36.70
2023-03-28T10:02:03.525Z,36.10
2023-03-28T10:04:30.131Z,35.90
2023-03-28T10:06:56.642Z,37.30
2023-03-28T10:09:23.118Z,36.20
2023-03-28T10:11:49.668Z,36.70
2023-03-28T10:14:16.183Z,36.20
2023-03-28T10:16:43.787Z,36.10
2023-03-28T10:19:10.349Z,36.60
2023-03-28T10:21:36.808Z,36.30
2023-03-28T10:24:03.267Z,36.50
2023-03-28T10:26:29.731Z,36.60
2023-03-28T10:28:56.220Z,37.00
2023-03-28T10:31:22.872Z,36.30
2023-03-28T10:33:49.430Z,36.00
2023-03-28T10:36:15.968Z,36.40
2023-03-28T10:38:42.468Z,36.60
2023-03-28T10:41:08.991Z,36.50
2023-03-28T10:43:35.528Z,36.50
2023-03-28T10:46:02.172Z,36.50
2023-03-28T10:50:55.706Z,36.50
2023-03-28T10:53:22.198Z,36.30
2023-03-28T10:55:48.687Z,36.50
2023-03-28T10:58:15.145Z,36.40
2023-03-28T11:00:41.595Z,36.40
2023-03-28T11:03:08.191Z,36.50
2023-03-28T11:05:34.743Z,36.20
2023-03-28T11:08:01.298Z,36.30
2023-03-28T11:12:56.610Z,37.30
2023-03-28T11:15:24.429Z,36.10
2023-03-28T11:17:50.977Z,36.40
2023-03-28T11:20:17.766Z,36.70
2023-03-28T11:25:21.959Z,36.50
2023-03-28T11:27:48.459Z,36.40
2023-03-28T11:30:14.919Z,36.10
2023-03-28T11:32:41.535Z,36.40
2023-03-28T11:35:08.111Z,36.30
2023-03-28T11:37:34.585Z,37.40
2023-03-28T11:42:28.558Z,36.60
2023-03-28T11:44:55.082Z,36.20
2023-03-28T11:47:21.664Z,36.60
2023-03-28T11:49:48.429Z,36.10
2023-03-28T11:52:14.890Z,36.10
2023-03-28T11:54:41.423Z,36.40
2023-03-28T11:57:07.914Z,36.60
2023-03-28T11:59:34.485Z,36.40
2023-03-28T12:02:00.998Z,36.70
2023-03-28T12:04:27.575Z,37.30
2023-03-28T12:09:29.316Z,36.30
2023-03-28T12:11:55.823Z,36.40
2023-03-28T12:14:22.351Z,36.30
2023-03-28T12:16:48.923Z,37.00
2023-03-28T12:19:15.467Z,36.80
2023-03-28T12:21:41.984Z,36.40
2023-03-28T12:24:08.507Z,37.10
2023-03-28T12:26:35.079Z,36.30
2023-03-28T12:29:01.619Z,36.30
2023-03-28T12:31:28.192Z,36.60
2023-03-28T12:33:54.884Z,36.90
2023-03-28T12:36:21.413Z,36.50
2023-03-28T12:38:47.894Z,37.20
2023-03-28T12:41:14.374Z,36.50
2023-03-28T12:43:40.862Z,36.70
2023-03-28T12:46:07.366Z,36.70
2023-03-28T12:48:33.851Z,37.20
2023-03-28T12:51:00.483Z,36.80
2023-03-28T12:53:27.072Z,36.10
2023-03-28T12:58:20.583Z,36.60
2023-03-28T13:00:47.100Z,36.00
2023-03-28T13:03:13.658Z,36.40
2023-03-28T13:08:07.247Z,36.20
2023-03-28T13:10:33.728Z,36.40
2023-03-28T13:15:27.221Z,37.50
2023-03-28T13:17:53.747Z,36.50
2023-03-28T13:20:20.259Z,36.70
2023-03-28T13:22:46.719Z,36.70
2023-03-28T13:25:13.830Z,36.60
2023-03-28T13:27:40.372Z,36.90
2023-03-28T13:32:33.908Z,36.30
2023-03-28T13:35:00.476Z,36.40
2023-03-28T13:37:26.966Z,36.50
2023-03-28T13:39:53.471Z,36.60
2023-03-28T13:42:19.923Z,36.80
2023-03-28T13:44:46.389Z,36.50
2023-03-28T13:47:12.864Z,36.90
2023-03-28T13:49:39.368Z,36.60
2023-03-28T13:52:05.906Z,36.70
2023-03-28T13:54:32.391Z,36.50
2023-03-28T13:56:58.976Z,36.60
2023-03-28T13:59:25.480Z,36.90
2023-03-28T14:01:51.986Z,36.50
2023-03-28T14:04:18.550Z,36.50
2023-03-28T14:06:45.130Z,36.30
2023-03-28T14:09:11.663Z,37.00
2023-03-28T14:11:38.230Z,36.20
2023-03-28T14:16:34.084Z,36.40
2023-03-28T14:19:00.658Z,36.60
2023-03-28T14:21:27.177Z,36.10
2023-03-28T14:23:53.644Z,36.20
2023-03-28T14:26:20.141Z,36.60
2023-03-28T14:28:46.661Z,36.80
2023-03-28T14:31:13.284Z,36.60
2023-03-28T14:33:39.905Z,36.70
2023-03-28T14:36:06.549Z,36.30
2023-03-28T14:38:33.076Z,36.60
2023-03-28T14:40:59.728Z,36.50
2023-03-28T14:43:26.304Z,36.50
2023-03-28T14:45:52.831Z,36.40
2023-03-28T14:48:19.414Z,36.60
2023-03-28T14:53:12.879Z,36.50
2023-03-28T14:55:39.365Z,36.10
2023-03-28T14:58:05.851Z,36.60
2023-03-28T15:00:32.386Z,36.20
2023-03-28T15:02:58.930Z,36.40
2023-03-28T15:05:25.569Z,36.80
2023-03-28T15:07:52.066Z,36.80
2023-03-28T15:10:18.540Z,36.60
2023-03-28T15:15:12.058Z,36.40
2023-03-28T15:17:38.632Z,36.50
2023-03-28T15:20:05.164Z,36.30
2023-03-28T15:22:31.647Z,36.30
2023-03-28T15:24:58.141Z,36.50
2023-03-28T15:27:24.638Z,36.20
2023-03-28T15:29:51.136Z,36.90
2023-03-28T15:34:44.679Z,36.80
2023-03-28T15:37:11.134Z,36.40
2023-03-28T15:39:37.609Z,36.40
2023-03-28T15:44:31.044Z,36.90
2023-03-28T15:46:57.756Z,36.70
2023-03-28T15:49:24.240Z,37.20
2023-03-28T15:51:50.761Z,36.70
2023-03-28T15:54:30.082Z,37.20
2023-03-28T15:56:58.144Z,37.30
2023-03-28T15:59:24.736Z,37.10
2023-03-28T16:01:51.283Z,37.40
2023-03-28T16:04:17.783Z,37.20
2023-03-28T16:06:44.302Z,37.20
2023-03-28T16:09:10.774Z,37.20
2023-03-28T16:11:37.267Z,37.40
2023-03-28T16:14:03.778Z,37.40
2023-03-28T16:16:30.322Z,37.50
2023-03-28T16:18:56.839Z,37.10
2023-03-28T16:21:23.315Z,37.00
2023-03-28T16:26:16.917Z,37.40
2023-03-28T16:28:43.398Z,37.20
2023-03-28T16:31:09.918Z,37.10
2023-03-28T16:33:36.447Z,37.70
2023-03-28T16:36:03.226Z,37.30
2023-03-28T16:38:29.978Z,37.40
2023-03-28T16:40:56.461Z,37.30
2023-03-28T16:43:23.011Z,37.40
2023-03-28T16:45:49.591Z,37.00
2023-03-28T16:48:16.165Z,37.50
2023-03-28T16:53:09.687Z,37.50
2023-03-28T16:55:36.155Z,37.40
2023-03-28T16:58:02.678Z,37.30
2023-03-28T17:00:29.189Z,37.30
2023-03-28T17:02:55.730Z,37.50
2023-03-28T17:05:22.286Z,37.70
2023-03-28T17:07:48.748Z,37.00
2023-03-28T17:10:15.271Z,37.40
2023-03-28T17:12:41.733Z,37.70
2023-03-28T17:15:08.214Z,37.40
2023-03-28T17:17:34.762Z,37.40
2023-03-28T17:20:01.302Z,37.40
2023-03-28T17:22:27.829Z,37.30
2023-03-28T17:24:54.295Z,37.60
2023-03-28T17:27:20.755Z,37.40
2023-03-28T17:29:47.246Z,37.70
2023-03-28T17:32:13.713Z,37.00
2023-03-28T17:34:40.323Z,37.60
2023-03-28T17:37:06.831Z,37.50
2023-03-28T17:39:33.382Z,37.40
2023-03-28T17:41:59.879Z,37.30
2023-03-28T17:44:26.389Z,37.50
2023-03-28T17:46:52.959Z,37.40
2023-03-28T17:49:19.430Z,37.70
2023-03-28T17:51:45.949Z,37.60
2023-03-28T17:54:12.447Z,37.70
2023-03-28T17:56:38.989Z,37.80
2023-03-28T17:59:05.537Z,37.30
2023-03-28T18:03:59.352Z,37.10
2023-03-28T18:06:26.081Z,36.70
2023-03-28T18:08:52.600Z,37.50
2023-03-28T18:11:19.099Z,37.80
2023-03-28T18:13:45.569Z,37.60
2023-03-28T18:16:12.152Z,37.40
2023-03-28T18:18:38.779Z,38.00
2023-03-28T18:21:05.288Z,38.10
2023-03-28T18:23:31.788Z,38.00
2023-03-28T18:30:52.616Z,37.60
2023-03-28T18:33:19.121Z,37.90
2023-03-28T18:35:45.676Z,38.10
2023-03-28T18:38:12.203Z,37.90
2023-03-28T18:40:38.702Z,38.30
2023-03-28T18:43:05.179Z,38.10
2023-03-28T18:45:31.725Z,37.40
2023-03-28T18:47:58.307Z,37.00
2023-03-28T18:53:14.986Z,38.10
2023-03-28T18:55:41.453Z,37.60
2023-03-28T18:58:07.901Z,37.70
2023-03-28T19:00:34.408Z,37.60
2023-03-28T19:03:01.026Z,37.80
2023-03-28T19:05:27.588Z,37.70
2023-03-28T19:10:45.208Z,38.00
2023-03-28T19:15:55.636Z,37.90
2023-03-28T19:21:06.548Z,37.70
2023-03-28T19:23:32.992Z,37.90
2023-03-28T19:25:59.739Z,38.00
2023-03-28T19:28:26.451Z,37.80
2023-03-28T19:30:52.920Z,37.70
2023-03-28T19:33:19.549Z,37.70
2023-03-28T19:35:46.113Z,37.20
2023-03-28T19:38:12.666Z,37.40
2023-03-28T19:40:39.142Z,37.30
2023-03-28T19:43:05.661Z,37.60
2023-03-28T19:45:32.192Z,38.20
2023-03-28T19:47:58.703Z,38.30
2023-03-28T19:50:25.256Z,37.80
2023-03-28T19:52:51.764Z,37.70
2023-03-28T19:55:18.282Z,37.80
2023-03-28T19:57:44.778Z,38.10
2023-03-28T20:00:11.282Z,37.50
2023-03-28T20:02:37.861Z,37.30
2023-03-28T20:05:04.341Z,37.10
2023-03-28T20:09:57.870Z,37.80
2023-03-28T20:12:24.371Z,37.50
2023-03-28T20:14:50.901Z,37.60
2023-03-28T20:17:17.407Z,37.50
2023-03-28T20:19:43.971Z,37.00
2023-03-28T20:22:10.468Z,37.90
2023-03-28T20:24:36.931Z,37.50
2023-03-28T20:27:03.461Z,37.50
2023-03-28T20:29:29.991Z,37.60
2023-03-28T20:31:56.599Z,37.40
2023-03-28T20:34:23.130Z,37.10
2023-03-28T20:36:49.625Z,37.00
2023-03-28T20:39:16.141Z,37.20
2023-03-28T20:41:42.621Z,37.40
2023-03-28T20:44:09.144Z,37.30
2023-03-28T20:49:02.748Z,37.30
2023-03-28T20:51:29.270Z,36.90
2023-03-28T20:53:55.841Z,37.00
2023-03-28T20:56:22.330Z,37.10
2023-03-28T20:58:48.818Z,36.90
2023-03-28T21:01:15.389Z,36.90
2023-03-28T21:03:41.934Z,36.70
2023-03-28T21:06:08.396Z,36.70
2023-03-28T21:08:34.926Z,36.80
2023-03-28T21:11:01.626Z,36.80
2023-03-28T21:13:28.405Z,36.70
2023-03-28T21:15:54.910Z,36.90
2023-03-28T21:18:21.446Z,36.80
2023-03-28T21:20:47.930Z,36.50
2023-03-28T21:23:14.464Z,36.50
2023-03-28T21:25:40.994Z,36.90
2023-03-28T21:28:07.542Z,36.60
2023-03-28T21:30:34.047Z,36.40
2023-03-28T21:33:03.560Z,36.20
2023-03-28T21:35:30.411Z,37.00
2023-03-28T21:37:57.071Z,36.50
2023-03-28T21:40:23.611Z,36.90
2023-03-28T21:45:17.166Z,36.50
2023-03-28T21:47:43.693Z,36.20
2023-03-28T21:52:39.085Z,36.30
2023-03-28T21:55:05.547Z,36.60
2023-03-28T21:57:32.048Z,36.40
2023-03-28T21:59:58.535Z,36.60
2023-03-28T22:02:25.047Z,36.50
2023-03-28T22:04:51.578Z,37.40
2023-03-28T22:07:18.111Z,36.50
2023-03-28T22:09:44.645Z,36.20
2023-03-28T22:14:38.134Z,36.40
2023-03-28T22:17:04.668Z,36.50
2023-03-28T22:19:31.198Z,36.20
2023-03-28T22:21:57.666Z,36.00
2023-03-28T22:24:24.185Z,36.20
2023-03-28T22:26:50.660Z,36.10
2023-03-28T22:29:17.093Z,36.20
2023-03-28T22:31:43.562Z,37.00
2023-03-28T22:34:10.138Z,36.30
2023-03-28T22:36:36.599Z,36.30
2023-03-28T22:39:03.046Z,36.10
2023-03-28T22:41:29.497Z,36.30
2023-03-28T22:43:55.979Z,36.90
2023-03-28T22:46:22.621Z,36.60
2023-03-28T22:48:49.142Z,37.00
2023-03-28T22:51:15.604Z,36.80
2023-03-28T22:53:42.091Z,36.50
2023-03-28T22:56:08.626Z,36.70
2023-03-28T22:58:35.084Z,36.50
2023-03-28T23:01:01.761Z,36.60
2023-03-28T23:03:28.344Z,36.10
2023-03-28T23:05:54.842Z,36.90
2023-03-28T23:10:48.375Z,36.20
2023-03-28T23:13:14.846Z,36.00
2023-03-28T23:15:41.337Z,36.00
2023-03-28T23:18:07.879Z,36.10
2023-03-28T23:20:34.403Z,36.40
2023-03-28T23:23:00.902Z,36.50
2023-03-28T23:25:27.424Z,36.40
2023-03-28T23:27:53.899Z,36.00
2023-03-28T23:30:20.350Z,36.20
2023-03-28T23:32:46.865Z,36.30
2023-03-28T23:35:13.401Z,36.40
2023-03-28T23:37:39.872Z,36.00
2023-03-28T23:40:06.383Z,36.30
2023-03-28T23:42:32.887Z,36.60
2023-03-28T23:44:59.360Z,36.30
2023-03-28T23:47:25.879Z,36.00
2023-03-28T23:49:52.372Z,36.10
2023-03-28T23:52:19.106Z,36.10
2023-03-28T23:54:45.636Z,36.50
2023-03-28T23:57:12.198Z,36.10
2023-03-28T23:59:38.700Z,36.00
